sensor_id;sensor_type;location;lat;lon;timestamp;P1;durP1;ratioP1;P2;durP2;ratioP2
14358;SDS011;7263;49.418;11.064;2023-04-03T00:01:44;3.73;;;2.50;;
14358;SDS011;7263;49.418;11.064;2023-04-03T00:04:13;3.87;;;2.83;;
14358;SDS011;7263;49.418;11.064;2023-04-03T00:06:40;2.00;;;1.80;;
14358;SDS011;7263;49.418;11.064;2023-04-03T00:09:07;3.67;;;3.13;;
14358;SDS011;7263;49.418;11.064;2023-04-03T00:11:34;1.80;;;1.70;;
14358;SDS011;7263;49.418;11.064;2023-04-03T00:14:01;1.90;;;1.60;;
14358;SDS011;7263;49.418;11.064;2023-04-03T00:16:31;1.80;;;1.40;;
14358;SDS011;7263;49.418;11.064;2023-04-03T00:18:58;3.03;;;1.60;;
14358;SDS011;7263;49.418;11.064;2023-04-03T00:21:27;1.60;;;1.33;;
14358;SDS011;7263;49.418;11.064;2023-04-03T00:23:54;1.60;;;1.50;;
14358;SDS011;7263;49.418;11.064;2023-04-03T00:26:21;2.30;;;2.10;;
14358;SDS011;7263;49.418;11.064;2023-04-03T00:28:48;2.90;;;2.70;;
14358;SDS011;7263;49.418;11.064;2023-04-03T00:31:18;3.10;;;2.60;;
14358;SDS011;7263;49.418;11.064;2023-04-03T00:33:45;3.63;;;2.70;;
14358;SDS011;7263;49.418;11.064;2023-04-03T00:36:12;3.60;;;2.80;;
14358;SDS011;7263;49.418;11.064;2023-04-03T00:38:43;2.27;;;2.07;;
14358;SDS011;7263;49.418;11.064;2023-04-03T00:41:10;2.13;;;1.60;;
14358;SDS011;7263;49.418;11.064;2023-04-03T00:43:36;1.50;;;1.40;;
14358;SDS011;7263;49.418;11.064;2023-04-03T00:46:04;1.67;;;1.57;;
14358;SDS011;7263;49.418;11.064;2023-04-03T00:48:34;3.83;;;1.40;;
14358;SDS011;7263;49.418;11.064;2023-04-03T00:51:06;2.67;;;1.53;;
14358;SDS011;7263;49.418;11.064;2023-04-03T00:53:37;1.60;;;1.50;;
14358;SDS011;7263;49.418;11.064;2023-04-03T00:56:09;2.37;;;1.60;;
14358;SDS011;7263;49.418;11.064;2023-04-03T00:58:40;2.17;;;1.40;;
14358;SDS011;7263;49.418;11.064;2023-04-03T01:01:11;1.60;;;1.40;;
14358;SDS011;7263;49.418;11.064;2023-04-03T01:03:44;1.80;;;1.60;;
14358;SDS011;7263;49.418;11.064;2023-04-03T01:06:11;1.60;;;1.50;;
14358;SDS011;7263;49.418;11.064;2023-04-03T01:08:42;1.40;;;1.30;;
14358;SDS011;7263;49.418;11.064;2023-04-03T01:11:13;2.10;;;1.40;;
14358;SDS011;7263;49.418;11.064;2023-04-03T01:13:40;1.53;;;1.40;;
14358;SDS011;7263;49.418;11.064;2023-04-03T01:16:08;2.17;;;1.63;;
14358;SDS011;7263;49.418;11.064;2023-04-03T01:18:35;1.87;;;1.40;;
14358;SDS011;7263;49.418;11.064;2023-04-03T01:24:32;1.63;;;1.50;;
14358;SDS011;7263;49.418;11.064;2023-04-03T01:27:03;1.90;;;1.37;;
14358;SDS011;7263;49.418;11.064;2023-04-03T01:29:31;2.13;;;1.43;;
14358;SDS011;7263;49.418;11.064;2023-04-03T01:32:00;1.40;;;1.30;;
14358;SDS011;7263;49.418;11.064;2023-04-03T01:34:30;2.70;;;1.37;;
14358;SDS011;7263;49.418;11.064;2023-04-03T01:36:57;3.17;;;1.50;;
14358;SDS011;7263;49.418;11.064;2023-04-03T01:39:24;2.10;;;1.60;;
14358;SDS011;7263;49.418;11.064;2023-04-03T01:41:51;2.23;;;1.67;;
14358;SDS011;7263;49.418;11.064;2023-04-03T01:44:18;1.77;;;1.40;;
14358;SDS011;7263;49.418;11.064;2023-04-03T01:46:44;1.87;;;1.50;;
14358;SDS011;7263;49.418;11.064;2023-04-03T01:49:13;3.00;;;1.40;;
14358;SDS011;7263;49.418;11.064;2023-04-03T01:51:39;1.30;;;1.20;;
14358;SDS011;7263;49.418;11.064;2023-04-03T01:54:06;1.67;;;1.50;;
14358;SDS011;7263;49.418;11.064;2023-04-03T01:56:34;1.57;;;1.40;;
14358;SDS011;7263;49.418;11.064;2023-04-03T01:59:01;1.50;;;1.40;;
14358;SDS011;7263;49.418;11.064;2023-04-03T02:01:28;1.73;;;1.30;;
14358;SDS011;7263;49.418;11.064;2023-04-03T02:03:55;2.77;;;1.40;;
14358;SDS011;7263;49.418;11.064;2023-04-03T02:06:23;1.60;;;1.50;;
14358;SDS011;7263;49.418;11.064;2023-04-03T02:08:51;1.77;;;1.53;;
14358;SDS011;7263;49.418;11.064;2023-04-03T02:11:18;1.47;;;1.30;;
14358;SDS011;7263;49.418;11.064;2023-04-03T02:13:45;1.30;;;1.20;;
14358;SDS011;7263;49.418;11.064;2023-04-03T02:16:12;2.27;;;1.40;;
14358;SDS011;7263;49.418;11.064;2023-04-03T02:18:39;1.50;;;1.30;;
14358;SDS011;7263;49.418;11.064;2023-04-03T02:21:06;1.30;;;1.20;;
14358;SDS011;7263;49.418;11.064;2023-04-03T02:23:34;1.43;;;1.20;;
14358;SDS011;7263;49.418;11.064;2023-04-03T02:26:05;1.80;;;1.30;;
14358;SDS011;7263;49.418;11.064;2023-04-03T02:28:33;1.67;;;1.37;;
14358;SDS011;7263;49.418;11.064;2023-04-03T02:31:00;1.30;;;1.20;;
14358;SDS011;7263;49.418;11.064;2023-04-03T02:33:27;1.43;;;1.30;;
14358;SDS011;7263;49.418;11.064;2023-04-03T02:35:55;2.20;;;1.20;;
14358;SDS011;7263;49.418;11.064;2023-04-03T02:38:22;1.60;;;1.30;;
14358;SDS011;7263;49.418;11.064;2023-04-03T02:40:51;1.53;;;1.20;;
14358;SDS011;7263;49.418;11.064;2023-04-03T02:43:18;2.33;;;1.40;;
14358;SDS011;7263;49.418;11.064;2023-04-03T02:45:45;1.57;;;1.47;;
14358;SDS011;7263;49.418;11.064;2023-04-03T02:48:12;1.37;;;1.27;;
14358;SDS011;7263;49.418;11.064;2023-04-03T02:50:39;1.77;;;1.60;;
14358;SDS011;7263;49.418;11.064;2023-04-03T02:53:06;2.30;;;2.10;;
14358;SDS011;7263;49.418;11.064;2023-04-03T02:55:33;2.80;;;1.70;;
14358;SDS011;7263;49.418;11.064;2023-04-03T02:58:02;1.70;;;1.40;;
14358;SDS011;7263;49.418;11.064;2023-04-03T03:00:29;4.20;;;1.97;;
14358;SDS011;7263;49.418;11.064;2023-04-03T03:02:56;1.63;;;1.50;;
14358;SDS011;7263;49.418;11.064;2023-04-03T03:05:23;2.47;;;1.60;;
14358;SDS011;7263;49.418;11.064;2023-04-03T03:07:50;2.67;;;1.57;;
14358;SDS011;7263;49.418;11.064;2023-04-03T03:10:16;2.23;;;1.67;;
14358;SDS011;7263;49.418;11.064;2023-04-03T03:12:43;2.77;;;1.90;;
14358;SDS011;7263;49.418;11.064;2023-04-03T03:15:12;1.97;;;1.73;;
14358;SDS011;7263;49.418;11.064;2023-04-03T03:17:40;3.87;;;3.00;;
14358;SDS011;7263;49.418;11.064;2023-04-03T03:20:07;3.03;;;2.20;;
14358;SDS011;7263;49.418;11.064;2023-04-03T03:22:35;3.23;;;2.40;;
14358;SDS011;7263;49.418;11.064;2023-04-03T03:25:02;2.57;;;1.93;;
14358;SDS011;7263;49.418;11.064;2023-04-03T03:27:30;2.87;;;2.13;;
14358;SDS011;7263;49.418;11.064;2023-04-03T03:29:56;2.53;;;2.10;;
14358;SDS011;7263;49.418;11.064;2023-04-03T03:32:24;2.20;;;1.70;;
14358;SDS011;7263;49.418;11.064;2023-04-03T03:34:51;2.67;;;2.00;;
14358;SDS011;7263;49.418;11.064;2023-04-03T03:37:18;3.10;;;2.00;;
14358;SDS011;7263;49.418;11.064;2023-04-03T03:39:45;2.50;;;2.10;;
14358;SDS011;7263;49.418;11.064;2023-04-03T03:42:11;2.13;;;1.70;;
14358;SDS011;7263;49.418;11.064;2023-04-03T03:44:38;3.13;;;2.00;;
14358;SDS011;7263;49.418;11.064;2023-04-03T03:47:05;2.37;;;1.70;;
14358;SDS011;7263;49.418;11.064;2023-04-03T03:49:36;2.93;;;1.80;;
14358;SDS011;7263;49.418;11.064;2023-04-03T03:52:02;3.03;;;2.10;;
14358;SDS011;7263;49.418;11.064;2023-04-03T03:54:29;4.40;;;2.13;;
14358;SDS011;7263;49.418;11.064;2023-04-03T03:56:56;2.83;;;2.10;;
14358;SDS011;7263;49.418;11.064;2023-04-03T03:59:23;4.13;;;1.83;;
14358;SDS011;7263;49.418;11.064;2023-04-03T04:01:50;3.20;;;2.30;;
14358;SDS011;7263;49.418;11.064;2023-04-03T04:04:16;2.53;;;2.30;;
14358;SDS011;7263;49.418;11.064;2023-04-03T04:06:45;2.90;;;2.50;;
14358;SDS011;7263;49.418;11.064;2023-04-03T04:09:11;3.93;;;2.40;;
14358;SDS011;7263;49.418;11.064;2023-04-03T04:11:39;4.27;;;2.20;;
14358;SDS011;7263;49.418;11.064;2023-04-03T04:14:06;3.73;;;2.43;;
14358;SDS011;7263;49.418;11.064;2023-04-03T04:16:33;3.43;;;2.03;;
14358;SDS011;7263;49.418;11.064;2023-04-03T04:19:00;3.67;;;2.40;;
14358;SDS011;7263;49.418;11.064;2023-04-03T04:21:27;3.60;;;2.30;;
14358;SDS011;7263;49.418;11.064;2023-04-03T04:23:55;3.07;;;2.40;;
14358;SDS011;7263;49.418;11.064;2023-04-03T04:26:22;3.87;;;2.23;;
14358;SDS011;7263;49.418;11.064;2023-04-03T04:28:49;4.53;;;2.50;;
14358;SDS011;7263;49.418;11.064;2023-04-03T04:31:15;4.60;;;3.10;;
14358;SDS011;7263;49.418;11.064;2023-04-03T04:33:42;3.10;;;2.73;;
14358;SDS011;7263;49.418;11.064;2023-04-03T04:36:09;3.73;;;2.80;;
14358;SDS011;7263;49.418;11.064;2023-04-03T04:38:36;3.50;;;2.43;;
14358;SDS011;7263;49.418;11.064;2023-04-03T04:41:04;4.73;;;2.90;;
14358;SDS011;7263;49.418;11.064;2023-04-03T04:43:31;4.00;;;2.70;;
14358;SDS011;7263;49.418;11.064;2023-04-03T04:46:01;3.67;;;2.37;;
14358;SDS011;7263;49.418;11.064;2023-04-03T04:48:30;4.07;;;2.40;;
14358;SDS011;7263;49.418;11.064;2023-04-03T04:50:56;5.10;;;2.40;;
14358;SDS011;7263;49.418;11.064;2023-04-03T04:53:23;5.40;;;2.20;;
14358;SDS011;7263;49.418;11.064;2023-04-03T04:55:50;3.70;;;2.43;;
14358;SDS011;7263;49.418;11.064;2023-04-03T04:58:19;4.37;;;2.47;;
14358;SDS011;7263;49.418;11.064;2023-04-03T05:00:46;4.73;;;2.57;;
14358;SDS011;7263;49.418;11.064;2023-04-03T05:03:13;3.13;;;2.23;;
14358;SDS011;7263;49.418;11.064;2023-04-03T05:05:39;4.57;;;2.70;;
14358;SDS011;7263;49.418;11.064;2023-04-03T05:08:06;2.57;;;2.20;;
14358;SDS011;7263;49.418;11.064;2023-04-03T05:10:34;2.93;;;2.43;;
14358;SDS011;7263;49.418;11.064;2023-04-03T05:13:00;3.63;;;2.37;;
14358;SDS011;7263;49.418;11.064;2023-04-03T05:15:28;4.17;;;2.47;;
14358;SDS011;7263;49.418;11.064;2023-04-03T05:17:55;3.80;;;2.30;;
14358;SDS011;7263;49.418;11.064;2023-04-03T05:20:22;4.87;;;2.63;;
14358;SDS011;7263;49.418;11.064;2023-04-03T05:22:49;3.43;;;2.47;;
14358;SDS011;7263;49.418;11.064;2023-04-03T05:25:16;3.20;;;2.20;;
14358;SDS011;7263;49.418;11.064;2023-04-03T05:27:42;4.30;;;2.53;;
14358;SDS011;7263;49.418;11.064;2023-04-03T05:30:10;4.33;;;2.53;;
14358;SDS011;7263;49.418;11.064;2023-04-03T05:32:38;3.97;;;2.57;;
14358;SDS011;7263;49.418;11.064;2023-04-03T05:35:06;3.53;;;2.20;;
14358;SDS011;7263;49.418;11.064;2023-04-03T05:37:33;4.23;;;2.70;;
14358;SDS011;7263;49.418;11.064;2023-04-03T05:40:00;4.17;;;2.50;;
14358;SDS011;7263;49.418;11.064;2023-04-03T05:42:27;3.40;;;2.27;;
14358;SDS011;7263;49.418;11.064;2023-04-03T05:44:54;5.20;;;2.73;;
14358;SDS011;7263;49.418;11.064;2023-04-03T05:47:21;4.20;;;2.40;;
14358;SDS011;7263;49.418;11.064;2023-04-03T05:49:50;3.53;;;2.10;;
14358;SDS011;7263;49.418;11.064;2023-04-03T05:52:17;4.37;;;2.20;;
14358;SDS011;7263;49.418;11.064;2023-04-03T05:54:47;4.87;;;2.43;;
14358;SDS011;7263;49.418;11.064;2023-04-03T05:57:14;3.47;;;2.20;;
14358;SDS011;7263;49.418;11.064;2023-04-03T05:59:42;4.30;;;2.70;;
14358;SDS011;7263;49.418;11.064;2023-04-03T06:02:10;4.77;;;2.40;;
14358;SDS011;7263;49.418;11.064;2023-04-03T06:04:37;2.97;;;2.17;;
14358;SDS011;7263;49.418;11.064;2023-04-03T06:07:05;5.13;;;2.00;;
14358;SDS011;7263;49.418;11.064;2023-04-03T06:09:33;3.17;;;2.50;;
14358;SDS011;7263;49.418;11.064;2023-04-03T06:12:00;3.83;;;2.43;;
14358;SDS011;7263;49.418;11.064;2023-04-03T06:14:27;5.87;;;2.40;;
14358;SDS011;7263;49.418;11.064;2023-04-03T06:16:54;3.53;;;2.30;;
14358;SDS011;7263;49.418;11.064;2023-04-03T06:19:21;5.40;;;2.40;;
14358;SDS011;7263;49.418;11.064;2023-04-03T06:21:48;3.70;;;2.20;;
14358;SDS011;7263;49.418;11.064;2023-04-03T06:24:16;5.20;;;2.10;;
14358;SDS011;7263;49.418;11.064;2023-04-03T06:26:44;3.83;;;2.00;;
14358;SDS011;7263;49.418;11.064;2023-04-03T06:29:11;5.37;;;3.23;;
14358;SDS011;7263;49.418;11.064;2023-04-03T06:31:38;3.60;;;2.00;;
14358;SDS011;7263;49.418;11.064;2023-04-03T06:34:05;3.13;;;2.30;;
14358;SDS011;7263;49.418;11.064;2023-04-03T06:36:32;3.53;;;2.20;;
14358;SDS011;7263;49.418;11.064;2023-04-03T06:38:59;4.13;;;2.20;;
14358;SDS011;7263;49.418;11.064;2023-04-03T06:41:27;5.40;;;2.30;;
14358;SDS011;7263;49.418;11.064;2023-04-03T06:43:55;4.57;;;2.10;;
14358;SDS011;7263;49.418;11.064;2023-04-03T06:46:23;2.57;;;2.00;;
14358;SDS011;7263;49.418;11.064;2023-04-03T06:48:52;2.97;;;1.97;;
14358;SDS011;7263;49.418;11.064;2023-04-03T06:51:19;4.53;;;2.60;;
14358;SDS011;7263;49.418;11.064;2023-04-03T06:53:48;5.43;;;3.67;;
14358;SDS011;7263;49.418;11.064;2023-04-03T06:56:16;4.30;;;2.00;;
14358;SDS011;7263;49.418;11.064;2023-04-03T06:58:44;4.37;;;2.40;;
14358;SDS011;7263;49.418;11.064;2023-04-03T07:01:12;4.57;;;2.20;;
14358;SDS011;7263;49.418;11.064;2023-04-03T07:03:40;2.43;;;1.97;;
14358;SDS011;7263;49.418;11.064;2023-04-03T07:06:07;5.33;;;1.83;;
14358;SDS011;7263;49.418;11.064;2023-04-03T07:08:37;4.93;;;3.10;;
14358;SDS011;7263;49.418;11.064;2023-04-03T07:11:04;2.87;;;2.10;;
14358;SDS011;7263;49.418;11.064;2023-04-03T07:13:31;4.30;;;2.13;;
14358;SDS011;7263;49.418;11.064;2023-04-03T07:16:00;2.67;;;1.93;;
14358;SDS011;7263;49.418;11.064;2023-04-03T07:18:28;3.53;;;1.90;;
14358;SDS011;7263;49.418;11.064;2023-04-03T07:20:55;5.13;;;2.20;;
14358;SDS011;7263;49.418;11.064;2023-04-03T07:23:22;3.73;;;2.10;;
14358;SDS011;7263;49.418;11.064;2023-04-03T07:25:50;2.80;;;1.90;;
14358;SDS011;7263;49.418;11.064;2023-04-03T07:28:18;3.93;;;2.20;;
14358;SDS011;7263;49.418;11.064;2023-04-03T07:30:46;3.57;;;2.10;;
14358;SDS011;7263;49.418;11.064;2023-04-03T07:33:16;3.47;;;1.90;;
14358;SDS011;7263;49.418;11.064;2023-04-03T07:35:45;2.97;;;1.90;;
14358;SDS011;7263;49.418;11.064;2023-04-03T07:38:12;3.50;;;1.60;;
14358;SDS011;7263;49.418;11.064;2023-04-03T07:40:39;3.37;;;2.00;;
14358;SDS011;7263;49.418;11.064;2023-04-03T07:43:11;2.93;;;1.77;;
14358;SDS011;7263;49.418;11.064;2023-04-03T07:45:38;3.20;;;2.03;;
14358;SDS011;7263;49.418;11.064;2023-04-03T07:48:05;4.20;;;2.07;;
14358;SDS011;7263;49.418;11.064;2023-04-03T07:50:33;4.77;;;1.87;;
14358;SDS011;7263;49.418;11.064;2023-04-03T07:53:01;3.77;;;1.70;;
14358;SDS011;7263;49.418;11.064;2023-04-03T07:55:28;4.63;;;1.83;;
14358;SDS011;7263;49.418;11.064;2023-04-03T07:57:54;2.83;;;1.70;;
14358;SDS011;7263;49.418;11.064;2023-04-03T08:00:21;3.63;;;1.97;;
14358;SDS011;7263;49.418;11.064;2023-04-03T08:02:48;3.63;;;1.90;;
14358;SDS011;7263;49.418;11.064;2023-04-03T08:05:16;3.27;;;1.60;;
14358;SDS011;7263;49.418;11.064;2023-04-03T08:07:45;2.13;;;1.60;;
14358;SDS011;7263;49.418;11.064;2023-04-03T08:10:12;5.40;;;1.70;;
14358;SDS011;7263;49.418;11.064;2023-04-03T08:12:40;3.30;;;1.80;;
14358;SDS011;7263;49.418;11.064;2023-04-03T08:15:08;3.13;;;1.77;;
14358;SDS011;7263;49.418;11.064;2023-04-03T08:17:35;2.20;;;1.63;;
14358;SDS011;7263;49.418;11.064;2023-04-03T08:20:02;4.07;;;1.70;;
14358;SDS011;7263;49.418;11.064;2023-04-03T08:22:31;3.47;;;1.77;;
14358;SDS011;7263;49.418;11.064;2023-04-03T08:24:59;4.03;;;2.63;;
14358;SDS011;7263;49.418;11.064;2023-04-03T08:27:27;6.63;;;3.63;;
14358;SDS011;7263;49.418;11.064;2023-04-03T08:29:54;6.53;;;3.90;;
14358;SDS011;7263;49.418;11.064;2023-04-03T08:32:21;6.77;;;3.90;;
14358;SDS011;7263;49.418;11.064;2023-04-03T08:34:49;4.93;;;2.80;;
14358;SDS011;7263;49.418;11.064;2023-04-03T08:37:16;7.13;;;3.80;;
14358;SDS011;7263;49.418;11.064;2023-04-03T08:39:42;4.27;;;2.20;;
14358;SDS011;7263;49.418;11.064;2023-04-03T08:42:14;4.53;;;2.50;;
14358;SDS011;7263;49.418;11.064;2023-04-03T08:44:46;3.23;;;2.17;;
14358;SDS011;7263;49.418;11.064;2023-04-03T08:47:19;3.53;;;1.93;;
14358;SDS011;7263;49.418;11.064;2023-04-03T08:49:51;2.97;;;2.37;;
14358;SDS011;7263;49.418;11.064;2023-04-03T08:52:20;2.37;;;1.70;;
14358;SDS011;7263;49.418;11.064;2023-04-03T08:54:51;3.93;;;2.00;;
14358;SDS011;7263;49.418;11.064;2023-04-03T08:57:25;4.10;;;2.30;;
14358;SDS011;7263;49.418;11.064;2023-04-03T08:59:54;4.00;;;2.60;;
14358;SDS011;7263;49.418;11.064;2023-04-03T09:02:25;4.57;;;2.30;;
14358;SDS011;7263;49.418;11.064;2023-04-03T09:04:55;2.93;;;1.87;;
14358;SDS011;7263;49.418;11.064;2023-04-03T09:07:23;2.27;;;2.03;;
14358;SDS011;7263;49.418;11.064;2023-04-03T09:09:58;3.13;;;2.30;;
14358;SDS011;7263;49.418;11.064;2023-04-03T09:12:30;3.17;;;2.10;;
14358;SDS011;7263;49.418;11.064;2023-04-03T09:15:02;3.23;;;1.60;;
14358;SDS011;7263;49.418;11.064;2023-04-03T09:17:40;2.60;;;1.73;;
14358;SDS011;7263;49.418;11.064;2023-04-03T09:20:17;2.80;;;1.70;;
14358;SDS011;7263;49.418;11.064;2023-04-03T09:22:51;4.73;;;1.87;;
14358;SDS011;7263;49.418;11.064;2023-04-03T09:25:20;3.10;;;1.87;;
14358;SDS011;7263;49.418;11.064;2023-04-03T09:27:50;3.37;;;1.83;;
14358;SDS011;7263;49.418;11.064;2023-04-03T09:30:18;2.60;;;1.70;;
14358;SDS011;7263;49.418;11.064;2023-04-03T09:32:48;2.37;;;1.40;;
14358;SDS011;7263;49.418;11.064;2023-04-03T09:35:18;4.17;;;2.23;;
14358;SDS011;7263;49.418;11.064;2023-04-03T09:37:48;3.00;;;1.10;;
14358;SDS011;7263;49.418;11.064;2023-04-03T09:40:30;2.10;;;1.50;;
14358;SDS011;7263;49.418;11.064;2023-04-03T09:45:48;3.60;;;1.70;;
14358;SDS011;7263;49.418;11.064;2023-04-03T09:48:17;2.70;;;1.30;;
14358;SDS011;7263;49.418;11.064;2023-04-03T09:50:52;2.77;;;1.73;;
14358;SDS011;7263;49.418;11.064;2023-04-03T09:53:30;2.17;;;1.57;;
14358;SDS011;7263;49.418;11.064;2023-04-03T09:56:03;2.90;;;1.73;;
14358;SDS011;7263;49.418;11.064;2023-04-03T09:58:45;2.17;;;1.63;;
14358;SDS011;7263;49.418;11.064;2023-04-03T10:01:20;1.93;;;1.30;;
14358;SDS011;7263;49.418;11.064;2023-04-03T10:04:03;2.43;;;1.53;;
14358;SDS011;7263;49.418;11.064;2023-04-03T10:06:33;3.33;;;1.87;;
14358;SDS011;7263;49.418;11.064;2023-04-03T10:09:02;2.60;;;1.60;;
14358;SDS011;7263;49.418;11.064;2023-04-03T10:11:30;2.47;;;1.47;;
14358;SDS011;7263;49.418;11.064;2023-04-03T10:13:59;2.23;;;1.37;;
14358;SDS011;7263;49.418;11.064;2023-04-03T10:16:29;2.37;;;1.37;;
14358;SDS011;7263;49.418;11.064;2023-04-03T10:22:04;2.43;;;1.33;;
14358;SDS011;7263;49.418;11.064;2023-04-03T10:24:44;4.50;;;1.30;;
14358;SDS011;7263;49.418;11.064;2023-04-03T10:27:18;1.83;;;1.50;;
14358;SDS011;7263;49.418;11.064;2023-04-03T10:29:55;5.20;;;2.07;;
14358;SDS011;7263;49.418;11.064;2023-04-03T10:32:45;2.90;;;1.30;;
14358;SDS011;7263;49.418;11.064;2023-04-03T10:35:22;6.27;;;1.70;;
14358;SDS011;7263;49.418;11.064;2023-04-03T10:38:01;1.83;;;1.40;;
14358;SDS011;7263;49.418;11.064;2023-04-03T10:40:34;2.83;;;1.70;;
14358;SDS011;7263;49.418;11.064;2023-04-03T10:43:09;1.53;;;1.20;;
14358;SDS011;7263;49.418;11.064;2023-04-03T10:45:57;2.53;;;1.40;;
14358;SDS011;7263;49.418;11.064;2023-04-03T10:48:31;2.53;;;1.53;;
14358;SDS011;7263;49.418;11.064;2023-04-03T10:51:08;3.73;;;1.43;;
14358;SDS011;7263;49.418;11.064;2023-04-03T10:53:42;4.03;;;1.70;;
14358;SDS011;7263;49.418;11.064;2023-04-03T10:56:15;5.20;;;2.10;;
14358;SDS011;7263;49.418;11.064;2023-04-03T10:58:48;1.27;;;1.13;;
14358;SDS011;7263;49.418;11.064;2023-04-03T11:01:21;3.27;;;1.20;;
14358;SDS011;7263;49.418;11.064;2023-04-03T11:03:54;1.40;;;1.30;;
14358;SDS011;7263;49.418;11.064;2023-04-03T11:06:24;1.40;;;1.20;;
14358;SDS011;7263;49.418;11.064;2023-04-03T11:08:55;2.87;;;1.67;;
14358;SDS011;7263;49.418;11.064;2023-04-03T11:11:29;1.70;;;1.30;;
14358;SDS011;7263;49.418;11.064;2023-04-03T11:14:00;2.93;;;1.30;;
14358;SDS011;7263;49.418;11.064;2023-04-03T11:16:30;2.20;;;1.70;;
14358;SDS011;7263;49.418;11.064;2023-04-03T11:19:01;2.20;;;1.43;;
14358;SDS011;7263;49.418;11.064;2023-04-03T11:21:32;3.20;;;1.90;;
14358;SDS011;7263;49.418;11.064;2023-04-03T11:24:04;2.67;;;1.47;;
14358;SDS011;7263;49.418;11.064;2023-04-03T11:26:36;2.27;;;1.50;;
14358;SDS011;7263;49.418;11.064;2023-04-03T11:29:08;1.97;;;1.30;;
14358;SDS011;7263;49.418;11.064;2023-04-03T11:31:45;2.83;;;1.30;;
14358;SDS011;7263;49.418;11.064;2023-04-03T11:34:28;1.83;;;1.10;;
14358;SDS011;7263;49.418;11.064;2023-04-03T11:37:02;2.60;;;1.23;;
14358;SDS011;7263;49.418;11.064;2023-04-03T11:39:37;2.27;;;1.20;;
14358;SDS011;7263;49.418;11.064;2023-04-03T11:42:15;2.90;;;1.50;;
14358;SDS011;7263;49.418;11.064;2023-04-03T11:44:49;1.53;;;1.00;;
14358;SDS011;7263;49.418;11.064;2023-04-03T11:53:25;2.50;;;1.50;;
14358;SDS011;7263;49.418;11.064;2023-04-03T11:55:59;2.37;;;1.37;;
14358;SDS011;7263;49.418;11.064;2023-04-03T11:58:31;2.43;;;1.20;;
14358;SDS011;7263;49.418;11.064;2023-04-03T12:01:09;1.70;;;1.23;;
14358;SDS011;7263;49.418;11.064;2023-04-03T12:12:41;2.53;;;1.30;;
14358;SDS011;7263;49.418;11.064;2023-04-03T12:18:31;2.80;;;1.37;;
14358;SDS011;7263;49.418;11.064;2023-04-03T12:21:17;1.47;;;1.10;;
14358;SDS011;7263;49.418;11.064;2023-04-03T12:24:00;1.83;;;1.37;;
14358;SDS011;7263;49.418;11.064;2023-04-03T12:26:32;2.47;;;1.40;;
14358;SDS011;7263;49.418;11.064;2023-04-03T12:29:10;0.87;;;0.80;;
14358;SDS011;7263;49.418;11.064;2023-04-03T12:31:45;2.03;;;1.20;;
14358;SDS011;7263;49.418;11.064;2023-04-03T12:34:27;1.90;;;1.17;;
14358;SDS011;7263;49.418;11.064;2023-04-03T12:37:07;2.83;;;1.80;;
14358;SDS011;7263;49.418;11.064;2023-04-03T12:39:49;2.30;;;1.40;;
14358;SDS011;7263;49.418;11.064;2023-04-03T12:42:25;5.20;;;1.23;;
14358;SDS011;7263;49.418;11.064;2023-04-03T12:45:10;2.00;;;1.17;;
14358;SDS011;7263;49.418;11.064;2023-04-03T12:47:43;2.00;;;1.50;;
14358;SDS011;7263;49.418;11.064;2023-04-03T12:50:18;2.10;;;1.30;;
14358;SDS011;7263;49.418;11.064;2023-04-03T12:52:50;2.23;;;1.67;;
14358;SDS011;7263;49.418;11.064;2023-04-03T12:55:22;2.90;;;1.60;;
14358;SDS011;7263;49.418;11.064;2023-04-03T12:57:50;1.63;;;1.30;;
14358;SDS011;7263;49.418;11.064;2023-04-03T13:00:22;3.83;;;1.30;;
14358;SDS011;7263;49.418;11.064;2023-04-03T13:02:57;1.43;;;1.10;;
14358;SDS011;7263;49.418;11.064;2023-04-03T13:05:24;1.57;;;1.03;;
14358;SDS011;7263;49.418;11.064;2023-04-03T13:07:52;2.13;;;1.10;;
14358;SDS011;7263;49.418;11.064;2023-04-03T13:10:23;2.03;;;1.30;;
14358;SDS011;7263;49.418;11.064;2023-04-03T13:12:52;1.80;;;1.13;;
14358;SDS011;7263;49.418;11.064;2023-04-03T13:15:22;2.73;;;1.33;;
14358;SDS011;7263;49.418;11.064;2023-04-03T13:17:50;1.50;;;1.10;;
14358;SDS011;7263;49.418;11.064;2023-04-03T13:20:19;2.43;;;1.30;;
14358;SDS011;7263;49.418;11.064;2023-04-03T13:22:49;1.47;;;1.20;;
14358;SDS011;7263;49.418;11.064;2023-04-03T13:25:20;2.20;;;1.23;;
14358;SDS011;7263;49.418;11.064;2023-04-03T13:27:48;1.37;;;1.03;;
14358;SDS011;7263;49.418;11.064;2023-04-03T13:30:20;1.77;;;1.30;;
14358;SDS011;7263;49.418;11.064;2023-04-03T13:32:51;2.17;;;1.40;;
14358;SDS011;7263;49.418;11.064;2023-04-03T13:35:26;1.73;;;1.20;;
14358;SDS011;7263;49.418;11.064;2023-04-03T13:37:55;2.40;;;1.47;;
14358;SDS011;7263;49.418;11.064;2023-04-03T13:40:22;3.87;;;1.13;;
14358;SDS011;7263;49.418;11.064;2023-04-03T13:42:58;1.83;;;1.40;;
14358;SDS011;7263;49.418;11.064;2023-04-03T13:45:28;4.03;;;1.40;;
14358;SDS011;7263;49.418;11.064;2023-04-03T13:48:07;2.60;;;1.30;;
14358;SDS011;7263;49.418;11.064;2023-04-03T13:53:33;3.57;;;1.30;;
14358;SDS011;7263;49.418;11.064;2023-04-03T13:56:08;1.93;;;1.27;;
14358;SDS011;7263;49.418;11.064;2023-04-03T13:58:51;3.10;;;1.43;;
14358;SDS011;7263;49.418;11.064;2023-04-03T14:01:33;2.17;;;1.30;;
14358;SDS011;7263;49.418;11.064;2023-04-03T14:04:11;1.97;;;1.50;;
14358;SDS011;7263;49.418;11.064;2023-04-03T14:06:42;4.00;;;1.40;;
14358;SDS011;7263;49.418;11.064;2023-04-03T14:09:08;3.13;;;1.40;;
14358;SDS011;7263;49.418;11.064;2023-04-03T14:11:35;1.70;;;1.60;;
14358;SDS011;7263;49.418;11.064;2023-04-03T14:14:05;2.50;;;1.60;;
14358;SDS011;7263;49.418;11.064;2023-04-03T14:16:40;2.37;;;1.13;;
14358;SDS011;7263;49.418;11.064;2023-04-03T14:19:11;1.30;;;1.20;;
14358;SDS011;7263;49.418;11.064;2023-04-03T14:21:44;1.27;;;1.17;;
14358;SDS011;7263;49.418;11.064;2023-04-03T14:24:11;2.53;;;1.00;;
14358;SDS011;7263;49.418;11.064;2023-04-03T14:26:38;3.60;;;1.17;;
14358;SDS011;7263;49.418;11.064;2023-04-03T14:29:04;2.30;;;1.40;;
14358;SDS011;7263;49.418;11.064;2023-04-03T14:31:31;3.10;;;1.40;;
14358;SDS011;7263;49.418;11.064;2023-04-03T14:33:59;1.77;;;1.10;;
14358;SDS011;7263;49.418;11.064;2023-04-03T14:36:27;2.03;;;1.17;;
14358;SDS011;7263;49.418;11.064;2023-04-03T14:38:55;1.87;;;1.30;;
14358;SDS011;7263;49.418;11.064;2023-04-03T14:41:23;2.27;;;1.50;;
14358;SDS011;7263;49.418;11.064;2023-04-03T14:43:52;2.83;;;1.47;;
14358;SDS011;7263;49.418;11.064;2023-04-03T14:46:19;3.50;;;1.50;;
14358;SDS011;7263;49.418;11.064;2023-04-03T14:48:51;2.03;;;1.50;;
14358;SDS011;7263;49.418;11.064;2023-04-03T14:51:19;1.33;;;1.20;;
14358;SDS011;7263;49.418;11.064;2023-04-03T14:53:47;2.13;;;1.23;;
14358;SDS011;7263;49.418;11.064;2023-04-03T14:56:16;2.83;;;1.60;;
14358;SDS011;7263;49.418;11.064;2023-04-03T14:58:46;2.07;;;1.20;;
14358;SDS011;7263;49.418;11.064;2023-04-03T15:01:15;2.97;;;1.50;;
14358;SDS011;7263;49.418;11.064;2023-04-03T15:03:42;1.73;;;1.40;;
14358;SDS011;7263;49.418;11.064;2023-04-03T15:06:09;1.47;;;1.37;;
14358;SDS011;7263;49.418;11.064;2023-04-03T15:08:39;2.43;;;1.40;;
14358;SDS011;7263;49.418;11.064;2023-04-03T15:11:07;1.97;;;1.37;;
14358;SDS011;7263;49.418;11.064;2023-04-03T15:13:34;2.27;;;1.50;;
14358;SDS011;7263;49.418;11.064;2023-04-03T15:16:01;2.13;;;1.30;;
14358;SDS011;7263;49.418;11.064;2023-04-03T15:18:31;1.83;;;1.10;;
14358;SDS011;7263;49.418;11.064;2023-04-03T15:21:01;2.03;;;1.50;;
14358;SDS011;7263;49.418;11.064;2023-04-03T15:23:28;1.40;;;1.20;;
14358;SDS011;7263;49.418;11.064;2023-04-03T15:25:57;1.57;;;1.10;;
14358;SDS011;7263;49.418;11.064;2023-04-03T15:28:25;3.30;;;1.20;;
14358;SDS011;7263;49.418;11.064;2023-04-03T15:30:56;4.37;;;1.30;;
14358;SDS011;7263;49.418;11.064;2023-04-03T15:33:23;1.90;;;1.23;;